sensor_id;sensor_type;location;lat;lon;timestamp;temperature;humidity
44695;DHT22;32845;59.422;17.930;2023-01-28T00:02:22;-1.60;99.90
44695;DHT22;32845;59.422;17.930;2023-01-28T00:06:53;-1.60;99.90
44695;DHT22;32845;59.422;17.930;2023-01-28T00:11:25;-1.50;99.90
44695;DHT22;32845;59.422;17.930;2023-01-28T00:16:01;-1.50;99.90
44695;DHT22;32845;59.422;17.930;2023-01-28T00:20:32;-1.60;99.90
44695;DHT22;32845;59.422;17.930;2023-01-28T00:25:02;-1.50;99.90
44695;DHT22;32845;59.422;17.930;2023-01-28T00:29:33;-1.50;99.90
44695;DHT22;32845;59.422;17.930;2023-01-28T00:34:04;-1.50;99.90
44695;DHT22;32845;59.422;17.930;2023-01-28T00:38:35;-1.50;99.90
44695;DHT22;32845;59.422;17.930;2023-01-28T00:43:06;-1.50;99.90
44695;DHT22;32845;59.422;17.930;2023-01-28T00:47:36;-1.50;99.90
44695;DHT22;32845;59.422;17.930;2023-01-28T00:52:08;-1.50;99.90
44695;DHT22;32845;59.422;17.930;2023-01-28T00:56:38;-1.50;99.90
44695;DHT22;32845;59.422;17.930;2023-01-28T01:01:12;-1.50;99.90
44695;DHT22;32845;59.422;17.930;2023-01-28T01:05:44;-1.50;99.90
44695;DHT22;32845;59.422;17.930;2023-01-28T01:10:17;-1.40;99.90
44695;DHT22;32845;59.422;17.930;2023-01-28T01:14:48;-1.40;99.90
44695;DHT22;32845;59.422;17.930;2023-01-28T01:19:18;-1.30;99.90
44695;DHT22;32845;59.422;17.930;2023-01-28T01:23:50;-1.40;99.90
44695;DHT22;32845;59.422;17.930;2023-01-28T01:28:21;-1.30;99.90
44695;DHT22;32845;59.422;17.930;2023-01-28T01:32:52;-1.30;99.90
44695;DHT22;32845;59.422;17.930;2023-01-28T01:37:23;-1.30;99.90
44695;DHT22;32845;59.422;17.930;2023-01-28T01:41:53;-1.30;99.90
44695;DHT22;32845;59.422;17.930;2023-01-28T01:51:10;-1.30;99.90
44695;DHT22;32845;59.422;17.930;2023-01-28T01:55:47;-1.20;99.90
44695;DHT22;32845;59.422;17.930;2023-01-28T02:00:19;-1.20;99.90
44695;DHT22;32845;59.422;17.930;2023-01-28T02:04:50;-1.10;99.90
44695;DHT22;32845;59.422;17.930;2023-01-28T02:09:25;-1.10;99.90
44695;DHT22;32845;59.422;17.930;2023-01-28T02:14:00;-1.10;99.90
44695;DHT22;32845;59.422;17.930;2023-01-28T02:18:32;-1.00;99.90
44695;DHT22;32845;59.422;17.930;2023-01-28T02:32:45;-1.10;99.90
44695;DHT22;32845;59.422;17.930;2023-01-28T02:37:26;-1.10;99.90
44695;DHT22;32845;59.422;17.930;2023-01-28T02:42:05;-1.10;99.90
44695;DHT22;32845;59.422;17.930;2023-01-28T02:46:37;-1.10;99.90
44695;DHT22;32845;59.422;17.930;2023-01-28T02:56:45;-1.10;99.90
44695;DHT22;32845;59.422;17.930;2023-01-28T03:01:21;-1.10;99.90
44695;DHT22;32845;59.422;17.930;2023-01-28T03:06:06;-1.10;99.90
44695;DHT22;32845;59.422;17.930;2023-01-28T03:10:38;-1.00;99.90
44695;DHT22;32845;59.422;17.930;2023-01-28T03:15:33;-1.00;99.90
44695;DHT22;32845;59.422;17.930;2023-01-28T03:20:32;-0.90;99.90
44695;DHT22;32845;59.422;17.930;2023-01-28T03:25:25;-0.90;99.90
44695;DHT22;32845;59.422;17.930;2023-01-28T03:30:25;-0.90;99.90
44695;DHT22;32845;59.422;17.930;2023-01-28T03:35:16;-0.80;99.90
44695;DHT22;32845;59.422;17.930;2023-01-28T03:40:07;-0.80;99.90
44695;DHT22;32845;59.422;17.930;2023-01-28T03:44:38;-0.70;99.90
44695;DHT22;32845;59.422;17.930;2023-01-28T03:49:24;-0.60;99.90
44695;DHT22;32845;59.422;17.930;2023-01-28T03:53:54;-0.50;99.90
44695;DHT22;32845;59.422;17.930;2023-01-28T03:58:25;-0.50;99.90
44695;DHT22;32845;59.422;17.930;2023-01-28T04:03:10;-0.40;99.90
44695;DHT22;32845;59.422;17.930;2023-01-28T04:07:47;-0.30;99.90
44695;DHT22;32845;59.422;17.930;2023-01-28T04:12:21;-0.20;99.90
44695;DHT22;32845;59.422;17.930;2023-01-28T04:16:53;-0.10;99.90
44695;DHT22;32845;59.422;17.930;2023-01-28T04:21:24;0.00;99.90
44695;DHT22;32845;59.422;17.930;2023-01-28T04:25:55;0.10;99.90
44695;DHT22;32845;59.422;17.930;2023-01-28T04:30:25;0.10;99.90
44695;DHT22;32845;59.422;17.930;2023-01-28T04:34:57;0.20;99.90
44695;DHT22;32845;59.422;17.930;2023-01-28T04:39:28;0.20;99.90
44695;DHT22;32845;59.422;17.930;2023-01-28T04:43:58;0.20;99.90
44695;DHT22;32845;59.422;17.930;2023-01-28T04:48:29;0.20;99.90
44695;DHT22;32845;59.422;17.930;2023-01-28T04:53:00;0.30;99.90
44695;DHT22;32845;59.422;17.930;2023-01-28T04:57:31;0.30;99.90
44695;DHT22;32845;59.422;17.930;2023-01-28T05:02:02;0.30;99.90
44695;DHT22;32845;59.422;17.930;2023-01-28T05:06:33;0.30;99.90
44695;DHT22;32845;59.422;17.930;2023-01-28T05:11:04;0.30;99.90
44695;DHT22;32845;59.422;17.930;2023-01-28T05:15:35;0.40;99.90
44695;DHT22;32845;59.422;17.930;2023-01-28T05:20:06;0.50;99.90
44695;DHT22;32845;59.422;17.930;2023-01-28T05:24:36;0.50;99.90
44695;DHT22;32845;59.422;17.930;2023-01-28T05:29:07;0.50;99.90
44695;DHT22;32845;59.422;17.930;2023-01-28T05:33:38;0.60;99.90
44695;DHT22;32845;59.422;17.930;2023-01-28T05:38:09;0.80;99.90
44695;DHT22;32845;59.422;17.930;2023-01-28T05:42:39;0.80;99.90
44695;DHT22;32845;59.422;17.930;2023-01-28T05:47:10;0.80;99.90
44695;DHT22;32845;59.422;17.930;2023-01-28T05:51:41;0.90;99.90
44695;DHT22;32845;59.422;17.930;2023-01-28T05:56:12;0.90;99.90
44695;DHT22;32845;59.422;17.930;2023-01-28T06:00:43;0.90;99.90
44695;DHT22;32845;59.422;17.930;2023-01-28T06:05:13;0.80;99.90
44695;DHT22;32845;59.422;17.930;2023-01-28T06:09:45;0.80;99.90
44695;DHT22;32845;59.422;17.930;2023-01-28T06:14:16;0.80;99.90
44695;DHT22;32845;59.422;17.930;2023-01-28T06:18:51;0.80;99.90
44695;DHT22;32845;59.422;17.930;2023-01-28T06:23:22;0.80;99.90
44695;DHT22;32845;59.422;17.930;2023-01-28T06:27:53;0.80;99.90
44695;DHT22;32845;59.422;17.930;2023-01-28T06:32:23;0.80;99.90
44695;DHT22;32845;59.422;17.930;2023-01-28T06:36:54;0.80;99.90
44695;DHT22;32845;59.422;17.930;2023-01-28T06:41:25;0.80;99.90
44695;DHT22;32845;59.422;17.930;2023-01-28T06:45:56;0.80;99.90
44695;DHT22;32845;59.422;17.930;2023-01-28T06:50:27;0.70;99.90
44695;DHT22;32845;59.422;17.930;2023-01-28T06:54:58;0.80;99.90
44695;DHT22;32845;59.422;17.930;2023-01-28T06:59:28;0.80;99.90
44695;DHT22;32845;59.422;17.930;2023-01-28T07:03:59;0.80;99.90
44695;DHT22;32845;59.422;17.930;2023-01-28T07:08:30;0.70;99.90
44695;DHT22;32845;59.422;17.930;2023-01-28T07:13:01;0.80;99.90
44695;DHT22;32845;59.422;17.930;2023-01-28T07:17:31;0.80;99.90
44695;DHT22;32845;59.422;17.930;2023-01-28T07:22:02;0.70;99.90
44695;DHT22;32845;59.422;17.930;2023-01-28T07:26:33;0.80;99.90
44695;DHT22;32845;59.422;17.930;2023-01-28T07:31:04;0.80;99.90
44695;DHT22;32845;59.422;17.930;2023-01-28T07:35:34;0.80;99.90
44695;DHT22;32845;59.422;17.930;2023-01-28T07:40:06;0.80;99.90
44695;DHT22;32845;59.422;17.930;2023-01-28T07:44:37;0.80;99.90
44695;DHT22;32845;59.422;17.930;2023-01-28T07:49:08;0.80;99.90
44695;DHT22;32845;59.422;17.930;2023-01-28T07:53:38;0.90;99.90
44695;DHT22;32845;59.422;17.930;2023-01-28T07:58:10;0.90;99.90
44695;DHT22;32845;59.422;17.930;2023-01-28T08:02:41;0.90;99.90
44695;DHT22;32845;59.422;17.930;2023-01-28T08:07:14;0.90;99.90
44695;DHT22;32845;59.422;17.930;2023-01-28T08:11:45;0.90;99.90
44695;DHT22;32845;59.422;17.930;2023-01-28T08:16:15;1.00;99.90
44695;DHT22;32845;59.422;17.930;2023-01-28T08:20:46;1.00;99.90
44695;DHT22;32845;59.422;17.930;2023-01-28T08:25:17;1.00;99.90
44695;DHT22;32845;59.422;17.930;2023-01-28T08:29:47;1.00;99.90
44695;DHT22;32845;59.422;17.930;2023-01-28T08:34:18;1.10;99.90
44695;DHT22;32845;59.422;17.930;2023-01-28T08:38:52;1.10;99.90
44695;DHT22;32845;59.422;17.930;2023-01-28T08:43:26;1.10;99.90
44695;DHT22;32845;59.422;17.930;2023-01-28T08:47:59;1.10;99.90
44695;DHT22;32845;59.422;17.930;2023-01-28T08:52:30;1.10;99.90
44695;DHT22;32845;59.422;17.930;2023-01-28T08:57:01;1.20;99.90
44695;DHT22;32845;59.422;17.930;2023-01-28T09:01:32;1.20;99.90
44695;DHT22;32845;59.422;17.930;2023-01-28T09:06:04;1.20;99.90
44695;DHT22;32845;59.422;17.930;2023-01-28T09:10:35;1.20;99.90
44695;DHT22;32845;59.422;17.930;2023-01-28T09:15:07;1.40;99.90
44695;DHT22;32845;59.422;17.930;2023-01-28T09:19:38;1.30;99.90
44695;DHT22;32845;59.422;17.930;2023-01-28T09:24:11;1.30;99.90
44695;DHT22;32845;59.422;17.930;2023-01-28T09:28:42;1.30;99.90
44695;DHT22;32845;59.422;17.930;2023-01-28T09:33:13;1.30;99.90
44695;DHT22;32845;59.422;17.930;2023-01-28T09:37:44;1.40;99.90
44695;DHT22;32845;59.422;17.930;2023-01-28T09:42:55;1.40;99.90
44695;DHT22;32845;59.422;17.930;2023-01-28T09:47:36;1.50;99.90
44695;DHT22;32845;59.422;17.930;2023-01-28T09:52:14;1.50;99.90
44695;DHT22;32845;59.422;17.930;2023-01-28T09:56:47;1.60;99.90
44695;DHT22;32845;59.422;17.930;2023-01-28T10:01:42;1.60;99.90
44695;DHT22;32845;59.422;17.930;2023-01-28T10:10:57;1.80;99.90
44695;DHT22;32845;59.422;17.930;2023-01-28T10:16:04;1.90;99.90
44695;DHT22;32845;59.422;17.930;2023-01-28T10:20:42;2.10;99.90
44695;DHT22;32845;59.422;17.930;2023-01-28T10:25:26;2.10;99.90
44695;DHT22;32845;59.422;17.930;2023-01-28T10:29:59;2.30;99.90
44695;DHT22;32845;59.422;17.930;2023-01-28T10:34:30;2.60;99.90
44695;DHT22;32845;59.422;17.930;2023-01-28T10:39:01;2.80;99.90
44695;DHT22;32845;59.422;17.930;2023-01-28T10:43:34;2.80;99.90
44695;DHT22;32845;59.422;17.930;2023-01-28T10:48:20;3.00;99.90
44695;DHT22;32845;59.422;17.930;2023-01-28T10:53:00;3.20;99.90
44695;DHT22;32845;59.422;17.930;2023-01-28T10:57:40;3.30;99.90
44695;DHT22;32845;59.422;17.930;2023-01-28T11:02:28;3.50;99.90
44695;DHT22;32845;59.422;17.930;2023-01-28T11:07:13;3.60;99.90
44695;DHT22;32845;59.422;17.930;2023-01-28T11:11:45;3.80;99.90
44695;DHT22;32845;59.422;17.930;2023-01-28T11:16:17;3.90;99.90
44695;DHT22;32845;59.422;17.930;2023-01-28T11:20:53;4.00;99.90
44695;DHT22;32845;59.422;17.930;2023-01-28T11:25:36;3.80;99.90
44695;DHT22;32845;59.422;17.930;2023-01-28T11:34:52;4.10;99.90
44695;DHT22;32845;59.422;17.930;2023-01-28T11:39:25;4.70;99.90
44695;DHT22;32845;59.422;17.930;2023-01-28T11:43:59;5.50;99.90
44695;DHT22;32845;59.422;17.930;2023-01-28T11:53:29;5.50;99.90
44695;DHT22;32845;59.422;17.930;2023-01-28T12:26:49;4.00;99.90
44695;DHT22;32845;59.422;17.930;2023-01-28T12:36:47;3.90;99.90
44695;DHT22;32845;59.422;17.930;2023-01-28T12:41:26;3.90;99.90
44695;DHT22;32845;59.422;17.930;2023-01-28T12:46:50;3.80;99.90
44695;DHT22;32845;59.422;17.930;2023-01-28T12:51:41;3.80;99.90
44695;DHT22;32845;59.422;17.930;2023-01-28T12:56:18;3.70;99.90
44695;DHT22;32845;59.422;17.930;2023-01-28T13:00:55;3.70;99.90
44695;DHT22;32845;59.422;17.930;2023-01-28T13:05:35;3.70;99.90
44695;DHT22;32845;59.422;17.930;2023-01-28T13:10:26;3.70;99.90
44695;DHT22;32845;59.422;17.930;2023-01-28T13:14:58;3.70;99.90
44695;DHT22;32845;59.422;17.930;2023-01-28T13:19:40;3.70;99.90
44695;DHT22;32845;59.422;17.930;2023-01-28T13:28:49;3.70;99.90
44695;DHT22;32845;59.422;17.930;2023-01-28T13:33:37;3.70;99.90
44695;DHT22;32845;59.422;17.930;2023-01-28T13:38:16;3.60;99.90
44695;DHT22;32845;59.422;17.930;2023-01-28T13:43:04;3.60;99.90
44695;DHT22;32845;59.422;17.930;2023-01-28T13:47:36;3.60;99.90
44695;DHT22;32845;59.422;17.930;2023-01-28T13:52:35;3.50;99.90
44695;DHT22;32845;59.422;17.930;2023-01-28T14:12:19;3.10;99.90
44695;DHT22;32845;59.422;17.930;2023-01-28T14:17:03;3.10;99.90
44695;DHT22;32845;59.422;17.930;2023-01-28T14:21:39;3.10;99.90
44695;DHT22;32845;59.422;17.930;2023-01-28T14:26:25;3.00;99.90
44695;DHT22;32845;59.422;17.930;2023-01-28T14:31:12;2.90;99.90
44695;DHT22;32845;59.422;17.930;2023-01-28T14:35:47;2.80;99.90
44695;DHT22;32845;59.422;17.930;2023-01-28T14:40:18;2.80;99.90
44695;DHT22;32845;59.422;17.930;2023-01-28T14:59:15;2.40;99.90
44695;DHT22;32845;59.422;17.930;2023-01-28T15:03:47;2.40;99.90
44695;DHT22;32845;59.422;17.930;2023-01-28T15:08:22;2.30;99.90
44695;DHT22;32845;59.422;17.930;2023-01-28T15:13:02;2.30;99.90
44695;DHT22;32845;59.422;17.930;2023-01-28T15:17:34;2.30;99.90
44695;DHT22;32845;59.422;17.930;2023-01-28T15:22:06;2.20;99.90
44695;DHT22;32845;59.422;17.930;2023-01-28T15:26:37;2.20;99.90
44695;DHT22;32845;59.422;17.930;2023-01-28T15:35:50;2.00;99.90
44695;DHT22;32845;59.422;17.930;2023-01-28T15:40:22;1.90;99.90
44695;DHT22;32845;59.422;17.930;2023-01-28T15:44:55;1.90;99.90
44695;DHT22;32845;59.422;17.930;2023-01-28T15:49:34;1.70;99.90
44695;DHT22;32845;59.422;17.930;2023-01-28T15:54:08;1.60;99.90
44695;DHT22;32845;59.422;17.930;2023-01-28T15:58:40;1.50;99.90
44695;DHT22;32845;59.422;17.930;2023-01-28T16:03:20;1.50;99.90
44695;DHT22;32845;59.422;17.930;2023-01-28T16:07:51;1.40;99.90
44695;DHT22;32845;59.422;17.930;2023-01-28T16:12:23;1.40;99.90
44695;DHT22;32845;59.422;17.930;2023-01-28T16:16:56;1.30;99.90
44695;DHT22;32845;59.422;17.930;2023-01-28T16:21:30;1.10;99.90
44695;DHT22;32845;59.422;17.930;2023-01-28T16:26:17;1.00;99.90
44695;DHT22;32845;59.422;17.930;2023-01-28T16:30:50;1.00;99.90
44695;DHT22;32845;59.422;17.930;2023-01-28T16:35:31;0.90;99.90
44695;DHT22;32845;59.422;17.930;2023-01-28T16:40:02;0.90;99.90
44695;DHT22;32845;59.422;17.930;2023-01-28T16:44:32;0.80;99.90
44695;DHT22;32845;59.422;17.930;2023-01-28T16:49:03;0.90;99.90
44695;DHT22;32845;59.422;17.930;2023-01-28T16:53:34;0.90;99.90
44695;DHT22;32845;59.422;17.930;2023-01-28T16:58:05;0.90;99.90
44695;DHT22;32845;59.422;17.930;2023-01-28T17:02:35;1.00;99.90
44695;DHT22;32845;59.422;17.930;2023-01-28T17:07:07;0.90;99.90
44695;DHT22;32845;59.422;17.930;2023-01-28T17:11:37;0.90;99.90
44695;DHT22;32845;59.422;17.930;2023-01-28T17:16:11;0.80;99.90
44695;DHT22;32845;59.422;17.930;2023-01-28T17:20:42;0.70;99.90
44695;DHT22;32845;59.422;17.930;2023-01-28T17:25:12;0.70;99.90
44695;DHT22;32845;59.422;17.930;2023-01-28T17:29:44;0.70;99.90
44695;DHT22;32845;59.422;17.930;2023-01-28T17:34:15;0.80;99.90
44695;DHT22;32845;59.422;17.930;2023-01-28T17:38:45;0.80;99.90
44695;DHT22;32845;59.422;17.930;2023-01-28T17:43:17;0.70;99.90
44695;DHT22;32845;59.422;17.930;2023-01-28T17:47:48;0.80;99.90
44695;DHT22;32845;59.422;17.930;2023-01-28T17:52:19;0.80;99.90
44695;DHT22;32845;59.422;17.930;2023-01-28T17:56:50;0.70;99.90
44695;DHT22;32845;59.422;17.930;2023-01-28T18:01:22;0.70;99.90
44695;DHT22;32845;59.422;17.930;2023-01-28T18:05:58;0.70;99.90
44695;DHT22;32845;59.422;17.930;2023-01-28T18:10:29;0.60;99.90
44695;DHT22;32845;59.422;17.930;2023-01-28T18:14:59;0.50;99.90
44695;DHT22;32845;59.422;17.930;2023-01-28T18:19:30;0.40;99.90
44695;DHT22;32845;59.422;17.930;2023-01-28T18:24:02;0.30;99.90
44695;DHT22;32845;59.422;17.930;2023-01-28T18:28:33;0.20;99.90
44695;DHT22;32845;59.422;17.930;2023-01-28T18:33:04;0.20;99.90
44695;DHT22;32845;59.422;17.930;2023-01-28T18:37:35;0.30;99.90
44695;DHT22;32845;59.422;17.930;2023-01-28T18:42:07;0.30;99.90
44695;DHT22;32845;59.422;17.930;2023-01-28T18:46:38;0.30;99.90
44695;DHT22;32845;59.422;17.930;2023-01-28T18:51:11;0.40;99.90
44695;DHT22;32845;59.422;17.930;2023-01-28T18:55:42;0.40;99.90
44695;DHT22;32845;59.422;17.930;2023-01-28T19:00:13;0.30;99.90
44695;DHT22;32845;59.422;17.930;2023-01-28T19:04:44;0.20;99.90
44695;DHT22;32845;59.422;17.930;2023-01-28T19:09:16;0.20;99.90
44695;DHT22;32845;59.422;17.930;2023-01-28T19:13:46;0.10;99.90
44695;DHT22;32845;59.422;17.930;2023-01-28T19:18:17;0.20;99.90
44695;DHT22;32845;59.422;17.930;2023-01-28T19:22:48;0.10;99.90
44695;DHT22;32845;59.422;17.930;2023-01-28T19:27:19;0.10;99.90
44695;DHT22;32845;59.422;17.930;2023-01-28T19:31:49;0.00;99.90
44695;DHT22;32845;59.422;17.930;2023-01-28T19:36:20;0.10;99.90
44695;DHT22;32845;59.422;17.930;2023-01-28T19:40:51;0.00;99.90
44695;DHT22;32845;59.422;17.930;2023-01-28T19:45:22;0.00;99.90
44695;DHT22;32845;59.422;17.930;2023-01-28T19:49:53;-0.10;99.90
44695;DHT22;32845;59.422;17.930;2023-01-28T19:54:24;-0.10;99.90
44695;DHT22;32845;59.422;17.930;2023-01-28T19:58:55;-0.10;99.90
44695;DHT22;32845;59.422;17.930;2023-01-28T20:03:26;-0.20;99.90
44695;DHT22;32845;59.422;17.930;2023-01-28T20:07:57;-0.20;99.90
44695;DHT22;32845;59.422;17.930;2023-01-28T20:12:27;-0.30;99.90
44695;DHT22;32845;59.422;17.930;2023-01-28T20:16:58;-0.30;99.90
44695;DHT22;32845;59.422;17.930;2023-01-28T20:21:30;-0.20;99.90
44695;DHT22;32845;59.422;17.930;2023-01-28T20:26:01;0.00;99.90
44695;DHT22;32845;59.422;17.930;2023-01-28T20:30:32;0.00;99.90
44695;DHT22;32845;59.422;17.930;2023-01-28T20:35:03;0.00;99.90
44695;DHT22;32845;59.422;17.930;2023-01-28T20:39:34;0.20;99.90
44695;DHT22;32845;59.422;17.930;2023-01-28T20:44:05;0.40;99.90
44695;DHT22;32845;59.422;17.930;2023-01-28T20:48:36;0.40;99.90
44695;DHT22;32845;59.422;17.930;2023-01-28T20:53:06;0.50;99.90
44695;DHT22;32845;59.422;17.930;2023-01-28T20:57:37;0.50;99.90
44695;DHT22;32845;59.422;17.930;2023-01-28T21:02:09;0.50;99.90
44695;DHT22;32845;59.422;17.930;2023-01-28T21:06:40;0.50;99.90
44695;DHT22;32845;59.422;17.930;2023-01-28T21:11:11;0.40;99.90
44695;DHT22;32845;59.422;17.930;2023-01-28T21:15:52;0.30;99.90
44695;DHT22;32845;59.422;17.930;2023-01-28T21:20:24;0.30;99.90
44695;DHT22;32845;59.422;17.930;2023-01-28T21:24:54;0.30;99.90
44695;DHT22;32845;59.422;17.930;2023-01-28T21:29:25;0.40;99.90
44695;DHT22;32845;59.422;17.930;2023-01-28T21:33:57;0.40;99.90
44695;DHT22;32845;59.422;17.930;2023-01-28T21:38:30;0.40;99.90
44695;DHT22;32845;59.422;17.930;2023-01-28T21:43:01;0.50;99.90
44695;DHT22;32845;59.422;17.930;2023-01-28T21:47:32;0.40;99.90
44695;DHT22;32845;59.422;17.930;2023-01-28T21:52:03;0.40;99.90
44695;DHT22;32845;59.422;17.930;2023-01-28T21:56:33;0.40;99.90
44695;DHT22;32845;59.422;17.930;2023-01-28T22:01:08;0.30;99.90
44695;DHT22;32845;59.422;17.930;2023-01-28T22:05:38;0.40;99.90
44695;DHT22;32845;59.422;17.930;2023-01-28T22:10:10;0.40;99.90
44695;DHT22;32845;59.422;17.930;2023-01-28T22:14:41;0.50;99.90
44695;DHT22;32845;59.422;17.930;2023-01-28T22:19:13;0.50;99.90
44695;DHT22;32845;59.422;17.930;2023-01-28T22:23:44;0.60;99.90
44695;DHT22;32845;59.422;17.930;2023-01-28T22:28:15;0.50;99.90
44695;DHT22;32845;59.422;17.930;2023-01-28T22:32:46;0.50;99.90
44695;DHT22;32845;59.422;17.930;2023-01-28T22:37:17;0.40;99.90
44695;DHT22;32845;59.422;17.930;2023-01-28T22:41:48;0.40;99.90
44695;DHT22;32845;59.422;17.930;2023-01-28T22:46:20;0.30;99.90
44695;DHT22;32845;59.422;17.930;2023-01-28T22:50:51;0.30;99.90
44695;DHT22;32845;59.422;17.930;2023-01-28T22:55:22;0.20;99.90
44695;DHT22;32845;59.422;17.930;2023-01-28T22:59:53;0.20;99.90
44695;DHT22;32845;59.422;17.930;2023-01-28T23:04:24;0.30;99.90
44695;DHT22;32845;59.422;17.930;2023-01-28T23:08:55;0.30;99.90
44695;DHT22;32845;59.422;17.930;2023-01-28T23:13:26;0.40;99.90
44695;DHT22;32845;59.422;17.930;2023-01-28T23:18:20;0.50;99.90
44695;DHT22;32845;59.422;17.930;2023-01-28T23:23:14;0.60;99.90
44695;DHT22;32845;59.422;17.930;2023-01-28T23:28:03;0.70;99.90
44695;DHT22;32845;59.422;17.930;2023-01-28T23:32:39;0.70;99.90
44695;DHT22;32845;59.422;17.930;2023-01-28T23:37:12;0.60;99.90
44695;DHT22;32845;59.422;17.930;2023-01-28T23:41:43;0.60;99.90
44695;DHT22;32845;59.422;17.930;2023-01-28T23:46:13;0.60;99.90
44695;DHT22;32845;59.422;17.930;2023-01-28T23:50:44;0.70;99.90
44695;DHT22;32845;59.422;17.930;2023-01-28T23:55:15;0.80;99.90
44695;DHT22;32845;59.422;17.930;2023-01-28T23:59:46;0.80;99.90
